South Windham, Maine
Current Conditions -  °F | °C
As of 12:51 AM on Sunday 23 Nov 2014 (Local Time) from KPWM Reporting Station
Overcast Overcast  
Wind Chill: 35°   Ceiling: 7000
Heat Index: 41°   Visibility: 10mi
Dew Point: 17°   Wind: 9mph
Humidity: 38%   Direction: 220°SW
Pressure: 29.97"   Gusts: NA
Location:  43.74°N, 70.42°W
Report Text: KPWM 230551Z AUTO 22008KT 10SM OVC070 05/M08 A2997 RMK AO2 SLP150 T00501083 10050 20028 55000
Loading
Personal Weather Stations






























Interactive Weather Map New forecast layout! Learn more

10-Day Weather Forecast

Advertisements
Track Severe Weather on mobile